Etusivu
METAR-TAF:

METAR-TAF

Lentoasemat :

Zonguldak, Turkki

Leveyspiiri: 41-27N, Pituuspiiri: 031-48E, korkeus merenpinnasta: 136 m

Tämänhetkinen sää

Tämä raportti tehtiin 24 tuntia ja 41 minuuttia sitten, kello 01.50 UTC
Tuuli 2 kn eri suunnista
Lämpötila 13°C
Kosteus 88%
Ilmanpaine 1015 hPa
Näkyvyys 10 km tai enemmän
ei pilviä alle 1500 m:ssä eikä cumulonimbus-pilviä

METAR: LTAS 050150Z VRB02KT CAVOK 13/11 Q1015

Aika: 05:31 (02:31 UTC)

Sääennuste

Tämä raportti tehtiin 51 minuuttia sitten, kello 01.40 UTC
Ennuste voimassa 06. päivästä klo 03 UTC - 06. päivään klo 12 UTC
Tuuli 2 kn eri suunnista
Näkyvyys 10 km tai enemmän
ei pilviä alle 1500 m:ssä eikä cumulonimbus-pilviä
Tulossa
06. päivästä klo 05 UTC - 06. päivään klo 07 UTC
Hajanaisia pilviä 4000 ft:n korkeudessa
Hajonneita pilviä 20000 ft:n korkeudessa

TAF: LTAS 060140Z 0603/0612 VRB02KT CAVOK BECMG 0605/0607 SCT040 BKN200

Säähavainnot ja -ennusteet yli 4000 lentoasemalta (METAR- ja TAF-raportit).

Käytössä olevat sääasemat on merkitty karttaan keltaisilla ja punaisilla pisteillä.

Aseta hiiri pisteen päälle nähdäksesi sääaseman nimen.

Klikkaa sitten nähdäksesi säähavainnot ja -ennusteet.

Kartan vaihtaminen: klikkaa mustalla rastilla varustettuja vihreitä pisteitä, niin voit zoomata sisään; viivalla varustettua vihreää pistettä, niin voit zoomata ulos tai vihreitä nuolia, niin pääset viereisille kartoille.


METAR-TAF: